TimeCDT,TemperatureF,Dew PointF,Humidity,Sea Level PressureIn,VisibilityMPH,Wind Direction,Wind SpeedMPH,Gust SpeedMPH,PrecipitationIn,Events,Conditions,WindDirDegrees,DateUTC
12:53 AM,72.0,63.0,73,30.03,10.0,East,5.8,-,N/A,,Clear,80,2013-08-19 05:53:00
1:53 AM,71.1,62.1,73,30.03,10.0,East,3.5,-,N/A,,Clear,90,2013-08-19 06:53:00
2:53 AM,70.0,62.1,76,30.01,10.0,East,3.5,-,N/A,,Clear,90,2013-08-19 07:53:00
3:53 AM,69.1,62.1,78,30.01,10.0,East,4.6,-,N/A,,Clear,80,2013-08-19 08:53:00
4:53 AM,69.1,62.1,78,29.99,10.0,SE,4.6,-,N/A,,Clear,130,2013-08-19 09:53:00
5:53 AM,69.1,62.1,78,30.01,10.0,Calm,Calm,-,N/A,,Clear,0,2013-08-19 10:53:00
6:53 AM,68.0,62.1,81,30.03,10.0,East,4.6,-,N/A,,Scattered Clouds,100,2013-08-19 11:53:00
7:53 AM,70.0,62.1,76,30.03,10.0,ESE,8.1,-,N/A,,Scattered Clouds,120,2013-08-19 12:53:00
8:53 AM,73.0,63.0,71,30.04,10.0,SE,11.5,-,N/A,,Scattered Clouds,130,2013-08-19 13:53:00
9:53 AM,77.0,64.0,64,30.06,10.0,SSE,9.2,-,N/A,,Partly Cloudy,150,2013-08-19 14:53:00
10:53 AM,81.0,64.0,56,30.05,10.0,SE,9.2,-,N/A,,Clear,130,2013-08-19 15:53:00
11:53 AM,84.9,63.0,48,30.03,10.0,SSE,16.1,-,N/A,,Clear,150,2013-08-19 16:53:00
12:53 PM,88.0,62.1,42,30.02,10.0,SSE,15.0,21.9,N/A,,Clear,150,2013-08-19 17:53:00
1:53 PM,90.0,61.0,38,30.01,10.0,SSE,16.1,-,N/A,,Clear,150,2013-08-19 18:53:00
2:53 PM,91.9,61.0,35,29.99,10.0,SSE,12.7,20.7,N/A,,Clear,150,2013-08-19 19:53:00
3:53 PM,93.0,61.0,34,29.97,10.0,ESE,10.4,18.4,N/A,,Clear,120,2013-08-19 20:53:00
4:53 PM,93.0,61.0,34,29.95,10.0,SSE,9.2,-,N/A,,Clear,150,2013-08-19 21:53:00
5:53 PM,91.9,60.1,34,29.93,10.0,SSE,9.2,-,N/A,,Clear,150,2013-08-19 22:53:00
6:53 PM,91.0,60.1,35,29.92,10.0,SE,8.1,-,N/A,,Clear,130,2013-08-19 23:53:00
7:53 PM,88.0,62.1,42,29.93,10.0,ESE,5.8,-,N/A,,Clear,120,2013-08-20 00:53:00
8:53 PM,82.9,63.0,51,29.94,10.0,SE,5.8,-,N/A,,Clear,130,2013-08-20 01:53:00
9:53 PM,81.0,63.0,54,29.96,10.0,SE,5.8,-,N/A,,Clear,140,2013-08-20 02:53:00
10:53 PM,77.0,63.0,62,29.97,10.0,ESE,5.8,-,N/A,,Clear,120,2013-08-20 03:53:00
11:53 PM,75.9,63.0,64,29.97,10.0,ESE,5.8,-,N/A,,Clear,120,2013-08-20 04:53:00